Time;durP1;ratioP1;P1;durP2;ratioP2;P2;SDS_P1;SDS_P2;PMS_P1;PMS_P2;Temp;Humidity;BMP_temperature;BMP_pressure;BME280_temperature;BME280_humidity;BME280_pressure;Samples;Min_cycle;Max_cycle;Signal;HPM_P1;HPM_P2
2021/11/13 00:01:41;;;;;;;;;27.33;21.00;;;;;13.02;74.11;101178.59;4996968;28;45535;-73
2021/11/13 00:04:07;;;;;;;;;29.33;23.33;;;;;13.06;74.01;101171.56;4996390;28;45949;-73
2021/11/13 00:06:32;;;;;;;;;27.00;25.00;;;;;13.02;73.86;101165.34;4996529;28;45191;-74
2021/11/13 00:08:58;;;;;;;;;27.00;22.33;;;;;13.08;73.81;101160.06;4997596;28;46354;-74
2021/11/13 00:11:23;;;;;;;;;26.33;22.33;;;;;13.09;73.75;101164.47;4996599;28;59358;-73
2021/11/13 00:13:51;;;;;;;;;25.33;19.00;;;;;13.12;73.76;101168.94;4997012;28;45468;-73
2021/11/13 00:16:17;;;;;;;;;21.00;18.33;;;;;13.10;73.42;101162.72;4987142;28;45403;-73
2021/11/13 00:18:42;;;;;;;;;24.67;20.00;;;;;13.12;73.48;101171.59;4995654;28;53031;-73
2021/11/13 00:21:10;;;;;;;;;25.00;20.67;;;;;13.13;73.39;101172.47;4997196;28;62780;-74
2021/11/13 00:23:35;;;;;;;;;30.00;21.00;;;;;13.14;73.37;101168.94;4996884;28;45444;-74
2021/11/13 00:26:00;;;;;;;;;27.00;20.00;;;;;13.16;73.31;101161.91;4986920;28;45493;-73
2021/11/13 00:28:26;;;;;;;;;21.00;16.67;;;;;13.15;73.45;101157.44;4991478;28;45457;-73
2021/11/13 00:30:51;;;;;;;;;18.33;15.67;;;;;13.17;73.12;101156.59;4997267;28;45344;-73
2021/11/13 00:33:17;;;;;;;;;22.67;19.00;;;;;13.18;73.25;101154.81;4997301;28;45200;-73
2021/11/13 00:35:45;;;;;;;;;22.33;17.33;;;;;13.19;73.07;101149.53;4996448;28;49159;-73
2021/11/13 00:38:13;;;;;;;;;22.33;16.00;;;;;13.19;73.10;101146.00;4996436;28;46197;-73
2021/11/13 00:40:42;;;;;;;;;17.00;14.00;;;;;13.14;73.04;101145.97;4996050;28;45286;-73
2021/11/13 00:43:10;;;;;;;;;16.67;14.00;;;;;13.18;72.92;101155.72;4983788;28;45338;-73
2021/11/13 00:45:39;;;;;;;;;24.33;15.67;;;;;13.17;73.19;101156.59;4997234;28;45239;-73
2021/11/13 00:48:04;;;;;;;;;16.33;13.00;;;;;13.16;72.96;101149.53;4996839;28;47758;-73
2021/11/13 00:50:30;;;;;;;;;20.00;17.33;;;;;13.16;72.82;101159.25;4994365;28;56846;-74
2021/11/13 00:52:55;;;;;;;;;18.00;15.00;;;;;13.16;73.25;101153.94;4993584;28;50577;-74
2021/11/13 00:55:20;;;;;;;;;12.67;12.67;;;;;13.17;73.00;101155.72;4997122;28;45208;-74
2021/11/13 00:57:46;;;;;;;;;21.00;13.00;;;;;13.18;72.84;101158.34;4996603;28;45811;-73
2021/11/13 01:00:14;;;;;;;;;17.00;12.00;;;;;13.18;72.91;101160.13;4996328;28;60539;-74
2021/11/13 01:02:39;;;;;;;;;17.67;14.67;;;;;13.19;73.11;101167.19;4996223;28;45369;-73
2021/11/13 01:05:06;;;;;;;;;16.33;15.00;;;;;13.18;72.77;101165.44;4995147;28;47853;-73
2021/11/13 01:07:31;;;;;;;;;16.00;12.00;;;;;13.17;72.66;101167.19;4996618;28;46151;-74
2021/11/13 01:09:56;;;;;;;;;17.67;11.00;;;;;13.17;72.81;101156.59;4996675;28;45413;-73
2021/11/13 01:12:22;;;;;;;;;17.67;13.67;;;;;13.19;73.16;101157.47;4995451;28;45493;-73
2021/11/13 01:14:47;;;;;;;;;12.67;11.67;;;;;13.23;72.87;101155.78;4996406;28;45447;-74
2021/11/13 01:17:16;;;;;;;;;12.33;8.00;;;;;13.23;72.91;101151.34;4996209;28;46370;-74
2021/11/13 01:19:43;;;;;;;;;16.00;12.00;;;;;13.23;72.99;101161.97;4996719;28;45152;-73
2021/11/13 01:22:09;;;;;;;;;19.00;14.00;;;;;13.19;73.27;101148.63;4996772;28;45441;-73
2021/11/13 01:24:34;;;;;;;;;15.00;10.33;;;;;13.24;72.89;101157.53;4995504;28;45336;-73
2021/11/13 01:26:59;;;;;;;;;12.67;12.67;;;;;13.24;73.67;101162.84;4989186;28;56721;-73
2021/11/13 01:29:25;;;;;;;;;12.33;11.33;;;;;13.23;73.50;101156.66;4995676;28;45382;-73
2021/11/13 01:31:50;;;;;;;;;20.00;12.00;;;;;13.24;73.53;101162.84;4996382;28;47801;-73
2021/11/13 01:34:16;;;;;;;;;9.00;9.00;;;;;13.23;73.36;101161.06;4995897;28;45315;-73
2021/11/13 01:36:41;;;;;;;;;11.67;10.67;;;;;13.23;73.88;101166.38;4998278;28;50662;-74
2021/11/13 01:39:07;;;;;;;;;19.67;12.67;;;;;13.23;74.08;101161.97;4999864;28;45292;-73
2021/11/13 01:41:32;;;;;;;;;16.33;11.67;;;;;13.20;73.83;101161.91;4999550;28;54466;-74
2021/11/13 01:43:58;;;;;;;;;14.67;12.00;;;;;13.19;73.73;101162.78;4998778;28;45353;-74
2021/11/13 01:46:23;;;;;;;;;15.33;12.00;;;;;13.13;74.15;101154.78;4998570;28;60761;-74
2021/11/13 01:48:49;;;;;;;;;13.33;11.00;;;;;13.15;74.24;101157.44;4999311;28;57986;-73
2021/11/13 01:51:22;;;;;;;;;19.33;10.00;;;;;13.16;73.88;101140.69;4999312;28;45243;-74
2021/11/13 01:53:48;;;;;;;;;14.33;11.67;;;;;13.16;74.28;101133.63;4986393;28;45593;-73
2021/11/13 01:56:17;;;;;;;;;11.33;11.00;;;;;13.14;74.22;101123.88;4998726;28;46627;-74
2021/11/13 01:58:44;;;;;;;;;15.67;12.00;;;;;13.18;74.63;101146.88;4999429;28;45237;-73
2021/11/13 02:01:09;;;;;;;;;12.33;11.67;;;;;13.17;74.27;101143.34;4999693;28;45428;-73
2021/11/13 02:03:35;;;;;;;;;12.67;10.00;;;;;13.17;74.17;101137.16;4998826;28;49013;-73
2021/11/13 02:06:00;;;;;;;;;12.00;9.00;;;;;13.17;74.35;101131.84;4998675;28;62023;-73
2021/11/13 02:08:25;;;;;;;;;11.33;10.00;;;;;13.17;74.36;101131.84;4997055;28;60873;-73
2021/11/13 02:10:51;;;;;;;;;9.33;7.00;;;;;13.17;74.11;101127.44;4998980;28;53954;-73
2021/11/13 02:13:16;;;;;;;;;13.67;9.33;;;;;13.19;74.55;101130.06;4997701;28;50311;-73
2021/11/13 02:15:42;;;;;;;;;13.00;11.33;;;;;13.18;74.04;101130.97;4998940;28;46368;-73
2021/11/13 02:18:07;;;;;;;;;13.67;9.33;;;;;13.16;74.18;101133.63;4999053;28;45418;-73
2021/11/13 02:20:41;;;;;;;;;14.00;12.00;;;;;13.11;74.22;101122.97;4998190;28;45430;-73
2021/11/13 02:23:09;;;;;;;;;22.67;11.00;;;;;13.15;74.34;101130.94;4998700;28;45541;-73
2021/11/13 02:25:35;;;;;;;;;9.00;9.00;;;;;13.14;74.04;101132.69;4998937;28;45813;-73
2021/11/13 02:28:00;;;;;;;;;12.33;10.00;;;;;13.15;74.15;101126.50;4998973;28;45444;-73
2021/11/13 02:30:26;;;;;;;;;13.33;10.00;;;;;13.15;74.30;101131.81;4999239;28;45365;-74
2021/11/13 02:32:53;;;;;;;;;11.67;10.67;;;;;13.15;74.24;101136.22;4998596;28;45442;-74
2021/11/13 02:35:18;;;;;;;;;16.00;10.00;;;;;13.10;74.01;101126.53;4998853;28;46130;-73
2021/11/13 02:37:45;;;;;;;;;13.00;10.00;;;;;13.15;74.09;101128.28;4997567;28;45550;-74
2021/11/13 02:40:10;;;;;;;;;10.67;9.00;;;;;13.15;74.47;101120.31;4999211;28;45317;-74
2021/11/13 02:42:36;;;;;;;;;11.33;8.67;;;;;13.14;74.10;101102.66;4999203;28;45227;-73
2021/11/13 02:45:03;;;;;;;;;13.00;11.67;;;;;13.15;73.92;101113.25;4993424;28;46167;-72
2021/11/13 02:47:29;;;;;;;;;11.00;7.00;;;;;13.20;74.07;101118.59;4991258;28;45322;-73
2021/11/13 02:49:54;;;;;;;;;15.67;11.33;;;;;13.20;74.17;101107.97;4997868;28;55338;-73
2021/11/13 02:52:20;;;;;;;;;12.00;10.00;;;;;13.23;74.07;101116.88;4998079;28;53641;-73
2021/11/13 02:54:46;;;;;;;;;9.33;7.67;;;;;13.25;74.01;101123.06;4998738;28;45552;-73
2021/11/13 02:57:12;;;;;;;;;12.67;7.00;;;;;13.27;73.97;101120.44;4998704;28;45208;-73
2021/11/13 02:59:48;;;;;;;;;9.33;9.33;;;;;13.30;73.95;101125.75;4998629;28;49747;-73
2021/11/13 03:02:13;;;;;;;;;16.00;10.00;;;;;13.32;73.70;101118.69;4997921;28;45401;-73
2021/11/13 03:04:39;;;;;;;;;11.00;9.33;;;;;13.33;73.89;101116.03;4997068;28;57191;-73
2021/11/13 03:07:06;;;;;;;;;11.00;10.00;;;;;13.33;73.45;101121.34;4998380;28;47037;-73
2021/11/13 03:09:31;;;;;;;;;12.33;8.33;;;;;13.34;73.80;101112.50;4998512;28;45428;-73
2021/11/13 03:11:57;;;;;;;;;13.33;11.00;;;;;13.36;73.33;101118.69;4990243;28;53857;-73
2021/11/13 03:14:22;;;;;;;;;14.67;7.00;;;;;13.37;73.63;101111.66;4996106;28;57944;-73
2021/11/13 03:16:47;;;;;;;;;11.00;6.00;;;;;13.35;73.17;101111.63;4997825;28;61585;-74
2021/11/13 03:19:13;;;;;;;;;13.33;8.33;;;;;13.34;73.50;101101.91;4997667;28;49031;-74
2021/11/13 03:21:41;;;;;;;;;10.00;7.00;;;;;13.35;73.45;101100.13;4998336;28;46487;-73
2021/11/13 03:24:07;;;;;;;;;10.67;6.00;;;;;13.38;73.76;101102.81;4997495;28;61373;-74
2021/11/13 03:26:32;;;;;;;;;11.67;6.33;;;;;13.34;73.66;101101.00;4997517;28;60779;-73
2021/11/13 03:29:01;;;;;;;;;10.33;6.67;;;;;13.38;73.50;101105.47;4997243;28;45413;-74
2021/11/13 03:31:28;;;;;;;;;13.00;8.00;;;;;13.38;73.53;101099.28;4997452;28;45321;-73
2021/11/13 03:33:54;;;;;;;;;7.33;6.33;;;;;13.38;72.91;101099.28;4997187;28;47426;-73
2021/11/13 03:36:20;;;;;;;;;13.33;8.33;;;;;13.38;73.58;101107.22;4998247;28;45187;-74
2021/11/13 03:38:48;;;;;;;;;11.33;7.33;;;;;13.34;73.05;101101.00;4997867;28;45307;-73
2021/11/13 03:41:14;;;;;;;;;6.33;6.33;;;;;13.34;73.34;101095.72;4998265;28;45364;-73
2021/11/13 03:43:39;;;;;;;;;7.00;5.67;;;;;13.39;73.59;101099.28;4997869;28;45725;-73
2021/11/13 03:46:05;;;;;;;;;13.00;7.00;;;;;13.37;73.11;101093.09;4997764;28;45314;-74
2021/11/13 03:48:31;;;;;;;;;10.00;7.00;;;;;13.40;73.32;101095.72;4998029;28;45286;-74
2021/11/13 03:50:56;;;;;;;;;10.33;6.00;;;;;13.32;73.75;101086.88;4997711;28;50433;-73
2021/11/13 03:53:22;;;;;;;;;9.67;5.33;;;;;13.40;73.55;101106.34;4997598;28;46820;-73
2021/11/13 03:55:47;;;;;;;;;5.00;5.00;;;;;13.39;73.66;101096.63;4997951;28;45403;-74
2021/11/13 03:58:13;;;;;;;;;9.33;5.00;;;;;13.39;73.40;101101.91;4996415;28;45394;-73
2021/11/13 04:00:38;;;;;;;;;11.00;7.00;;;;;13.40;73.88;101105.44;4997820;28;46396;-73
2021/11/13 04:03:04;;;;;;;;;11.33;5.00;;;;;13.39;74.04;101099.28;4996899;28;57122;-73
2021/11/13 04:05:29;;;;;;;;;9.00;5.33;;;;;13.38;73.71;101104.56;4997986;28;45236;-74
2021/11/13 04:07:55;;;;;;;;;5.67;2.33;;;;;13.37;73.71;101111.66;4997518;28;45307;-73
2021/11/13 04:10:20;;;;;;;;;4.00;3.00;;;;;13.36;73.88;101110.72;4997679;28;47776;-74
2021/11/13 04:12:46;;;;;;;;;6.67;4.33;;;;;13.31;73.91;101101.88;4997431;28;45192;-74
2021/11/13 04:15:11;;;;;;;;;5.67;4.00;;;;;13.36;74.19;101115.16;4997167;28;45423;-73
2021/11/13 04:17:37;;;;;;;;;6.00;3.00;;;;;13.36;74.06;101110.72;4997152;28;45527;-73
2021/11/13 04:20:03;;;;;;;;;6.00;3.67;;;;;13.36;73.93;101121.34;4997657;28;45235;-73
2021/11/13 04:22:29;;;;;;;;;10.00;4.67;;;;;13.37;73.98;101114.31;4996207;28;46630;-74
2021/11/13 04:24:55;;;;;;;;;6.33;3.33;;;;;13.39;73.70;101119.59;4997069;28;45424;-73
2021/11/13 04:27:21;;;;;;;;;5.00;3.00;;;;;13.39;73.58;101117.84;4996369;28;53879;-74
2021/11/13 04:29:46;;;;;;;;;6.67;3.67;;;;;13.41;73.72;101116.06;4997705;28;45464;-73
2021/11/13 04:32:13;;;;;;;;;10.33;3.00;;;;;13.41;74.06;101116.06;4995820;28;45804;-74
2021/11/13 04:37:30;;;;;;;;;5.00;3.00;;;;;13.40;73.63;101113.41;5003609;28;45336;-73
2021/11/13 04:39:56;;;;;;;;;5.00;2.67;;;;;13.39;73.81;101104.56;4997399;28;45382;-73
2021/11/13 04:42:21;;;;;;;;;4.33;3.00;;;;;13.38;73.65;101110.75;4996550;28;46589;-73
2021/11/13 04:44:47;;;;;;;;;2.67;1.00;;;;;13.35;73.70;101101.00;4996303;28;45317;-74
2021/11/13 04:47:13;;;;;;;;;3.33;2.00;;;;;13.39;73.51;101112.53;4997137;28;45383;-73
2021/11/13 04:49:38;;;;;;;;;3.33;3.00;;;;;13.38;73.62;101116.06;4995249;28;45502;-74
2021/11/13 04:52:04;;;;;;;;;5.00;2.67;;;;;13.32;74.11;101108.97;4995504;28;46331;-73
2021/11/13 04:54:30;;;;;;;;;3.00;3.00;;;;;13.33;73.70;101100.13;4996344;28;45438;-73
2021/11/13 04:56:55;;;;;;;;;3.67;3.00;;;;;13.33;74.00;101108.09;4996516;28;54947;-73
2021/11/13 04:59:21;;;;;;;;;4.00;2.00;;;;;13.30;74.07;101117.78;4997330;28;45311;-74
2021/11/13 05:01:46;;;;;;;;;2.00;2.00;;;;;13.31;73.85;101127.50;4996315;28;58825;-74
2021/11/13 05:04:12;;;;;;;;;3.67;2.00;;;;;13.31;74.35;101122.22;4997146;28;45171;-74
2021/11/13 05:06:37;;;;;;;;;5.67;4.00;;;;;13.27;74.08;101112.50;4996784;28;50874;-73
2021/11/13 05:09:02;;;;;;;;;6.00;3.00;;;;;13.33;74.43;101125.78;4996772;28;49962;-73
2021/11/13 05:11:28;;;;;;;;;3.00;2.00;;;;;13.38;74.46;101128.44;4999880;28;55730;-74
2021/11/13 05:13:53;;;;;;;;;3.00;3.00;;;;;13.37;74.47;101124.91;4999044;28;60051;-74
2021/11/13 05:16:19;;;;;;;;;4.00;2.00;;;;;13.36;74.39;101110.72;4999900;28;52950;-73
2021/11/13 05:18:44;;;;;;;;;2.67;2.67;;;;;13.36;74.36;101121.34;4999405;28;45513;-73
2021/11/13 05:21:10;;;;;;;;;3.00;2.00;;;;;13.39;74.20;101122.25;4998938;28;45738;-73
2021/11/13 05:23:36;;;;;;;;;6.33;3.00;;;;;13.40;74.35;101121.38;4999824;28;45321;-74
2021/11/13 05:26:02;;;;;;;;;4.00;3.00;;;;;13.38;74.30;101113.41;5000043;28;45319;-73
2021/11/13 05:28:27;;;;;;;;;4.00;3.33;;;;;13.38;74.24;101121.38;4999622;28;49887;-74
2021/11/13 05:30:54;;;;;;;;;5.00;3.00;;;;;13.38;74.50;101126.69;5000041;28;46305;-74
2021/11/13 05:33:19;;;;;;;;;2.67;2.67;;;;;13.39;74.49;101127.56;4999921;28;45410;-73
2021/11/13 05:35:45;;;;;;;;;3.00;3.00;;;;;13.39;74.38;101132.88;5000077;28;45659;-73
2021/11/13 05:38:10;;;;;;;;;7.00;2.67;;;;;13.38;74.87;101134.63;4986761;28;45429;-73
2021/11/13 05:40:36;;;;;;;;;8.00;3.00;;;;;13.40;74.44;101127.56;4993230;28;53772;-73
2021/11/13 05:43:01;;;;;;;;;3.33;2.33;;;;;13.41;74.53;101123.13;4992980;28;45199;-74
2021/11/13 05:45:26;;;;;;;;;9.33;3.00;;;;;13.39;74.53;101124.91;5000015;28;45219;-73
2021/11/13 05:47:52;;;;;;;;;2.67;2.33;;;;;13.36;74.49;101126.66;4998915;28;52666;-73
2021/11/13 05:50:18;;;;;;;;;4.00;3.00;;;;;13.35;74.42;101130.19;4999422;28;47230;-73
2021/11/13 05:52:45;;;;;;;;;3.00;3.00;;;;;13.34;74.43;101127.53;4999582;28;45203;-74
2021/11/13 05:55:10;;;;;;;;;6.33;3.00;;;;;13.40;74.29;101134.63;4999698;28;45287;-73
2021/11/13 05:57:36;;;;;;;;;6.33;2.00;;;;;13.36;74.42;101118.69;4999966;28;45488;-73
2021/11/13 06:00:04;;;;;;;;;3.33;2.00;;;;;13.42;74.47;101130.22;4999826;28;45593;-73
2021/11/13 06:02:29;;;;;;;;;1.33;1.33;;;;;13.43;74.39;101129.34;4999553;28;45331;-73
2021/11/13 06:04:55;;;;;;;;;2.00;2.00;;;;;13.45;74.33;101130.22;4986142;28;47697;-74
2021/11/13 06:07:20;;;;;;;;;3.67;2.00;;;;;13.44;73.98;101133.78;4999630;28;46747;-74
2021/11/13 06:09:45;;;;;;;;;4.33;1.67;;;;;13.42;74.41;101141.69;4998808;28;61252;-74
2021/11/13 06:12:11;;;;;;;;;2.00;2.00;;;;;13.42;74.14;101140.81;4999514;28;45373;-73
2021/11/13 06:14:36;;;;;;;;;4.00;1.00;;;;;13.41;74.36;101144.34;4998702;28;51590;-73
2021/11/13 06:17:03;;;;;;;;;4.00;2.00;;;;;13.36;74.32;101137.25;4999171;28;45354;-73
2021/11/13 06:19:28;;;;;;;;;5.00;1.67;;;;;13.40;74.44;101137.28;5005384;22;47635;-74
2021/11/13 06:21:54;;;;;;;;;3.00;2.00;;;;;13.40;74.65;101145.25;4996071;28;53081;-73
2021/11/13 06:24:19;;;;;;;;;1.00;1.00;;;;;13.40;74.19;101143.47;4992637;28;45916;-74
2021/11/13 06:26:45;;;;;;;;;4.67;1.00;;;;;13.40;74.74;101159.38;4997112;28;45452;-74
2021/11/13 06:29:10;;;;;;;;;4.00;1.00;;;;;13.38;75.16;101141.72;4989935;28;57533;-73
2021/11/13 06:31:35;;;;;;;;;1.00;1.00;;;;;13.32;75.04;101148.75;4998229;28;45443;-73
2021/11/13 06:34:01;;;;;;;;;1.00;1.00;;;;;13.32;75.03;101145.22;4998063;28;45367;-73
2021/11/13 06:36:27;;;;;;;;;1.00;1.00;;;;;13.29;75.27;101155.81;4996526;28;45457;-73
2021/11/13 06:38:52;;;;;;;;;3.00;1.00;;;;;13.27;75.45;101154.91;4997167;28;46612;-73
2021/11/13 06:41:17;;;;;;;;;2.00;2.00;;;;;13.24;75.81;101155.78;4997642;28;52525;-73
2021/11/13 06:43:43;;;;;;;;;4.33;1.33;;;;;13.24;75.31;101162.84;4997987;28;45836;-73
2021/11/13 06:46:08;;;;;;;;;2.00;1.00;;;;;13.19;76.39;101164.53;4996555;28;45506;-73
2021/11/13 06:48:34;;;;;;;;;1.00;1.00;;;;;13.24;75.76;101169.03;4997129;28;61807;-72
2021/11/13 06:50:59;;;;;;;;;1.67;1.67;;;;;13.23;75.84;101169.91;4996048;28;56034;-72
2021/11/13 06:53:24;;;;;;;;;1.67;1.00;;;;;13.24;76.34;101160.19;4997379;28;53160;-72
2021/11/13 06:55:50;;;;;;;;;1.00;1.00;;;;;13.23;76.07;101161.97;4997156;28;53322;-72
2021/11/13 06:58:16;;;;;;;;;2.67;1.00;;;;;13.22;76.21;101168.16;4997415;28;46268;-72
2021/11/13 07:00:42;;;;;;;;;2.33;0.00;;;;;13.20;75.93;101172.50;4996939;28;45238;-73
2021/11/13 07:03:07;;;;;;;;;2.00;1.00;;;;;13.22;75.66;101169.91;4997569;28;45448;-73
2021/11/13 07:05:33;;;;;;;;;1.67;1.00;;;;;13.22;76.21;101181.41;4997408;28;47317;-73
2021/11/13 07:07:58;;;;;;;;;4.67;1.67;;;;;13.17;76.77;101176.91;4998548;28;45455;-73
2021/11/13 07:10:25;;;;;;;;;1.00;1.00;;;;;13.20;76.01;101183.09;4995969;28;45464;-74
2021/11/13 07:12:50;;;;;;;;;4.67;1.00;;;;;13.18;76.29;101186.66;4996780;28;45614;-73
2021/11/13 07:15:16;;;;;;;;;3.67;1.00;;;;;13.23;76.15;101196.44;4996644;28;45460;-73
2021/11/13 07:17:42;;;;;;;;;0.00;0.00;;;;;13.26;76.26;101200.84;4997589;28;46463;-72
2021/11/13 07:20:08;;;;;;;;;2.67;2.00;;;;;13.26;76.62;101207.06;4996400;28;45568;-72
2021/11/13 07:22:33;;;;;;;;;2.00;1.00;;;;;13.28;76.69;101209.72;4996179;28;45331;-73
2021/11/13 07:24:59;;;;;;;;;2.00;0.00;;;;;13.28;76.58;101218.56;4996370;28;45442;-74
2021/11/13 07:27:24;;;;;;;;;2.00;1.00;;;;;13.29;76.31;101217.69;4996944;28;58292;-73
2021/11/13 07:30:00;;;;;;;;;3.00;1.67;;;;;13.30;76.48;101229.16;4997697;28;45505;-75
2021/11/13 07:32:26;;;;;;;;;4.33;1.00;;;;;13.19;76.56;101215.81;4997481;28;45396;-72
2021/11/13 07:34:51;;;;;;;;;1.00;1.00;;;;;13.29;76.85;101233.59;4996619;28;45607;-72
2021/11/13 07:37:17;;;;;;;;;2.00;0.00;;;;;13.28;76.59;101237.13;4996604;28;60010;-72
2021/11/13 07:39:42;;;;;;;;;3.00;1.00;;;;;13.28;76.86;101236.25;4996377;28;45357;-72
2021/11/13 07:42:08;;;;;;;;;0.33;0.33;;;;;13.28;76.54;101241.53;4997003;28;45557;-73
2021/11/13 07:44:33;;;;;;;;;3.00;1.00;;;;;13.24;77.20;101227.38;4995371;28;53043;-72
2021/11/13 07:46:58;;;;;;;;;1.67;1.00;;;;;13.23;77.57;101240.63;4993139;28;46436;-72
2021/11/13 07:49:24;;;;;;;;;0.00;0.00;;;;;13.19;78.06;101244.09;4996086;28;57935;-71
2021/11/13 07:51:49;;;;;;;;;0.67;0.00;;;;;13.14;82.33;101237.88;4995668;28;45738;-72
2021/11/13 07:54:15;;;;;;;;;0.00;0.00;;;;;13.15;82.66;101250.25;4996033;28;45429;-72
2021/11/13 07:56:41;;;;;;;;;0.00;0.00;;;;;13.17;82.23;101241.44;4994038;28;46513;-73
2021/11/13 07:59:06;;;;;;;;;0.00;0.00;;;;;13.16;81.29;101238.78;4996662;28;45425;-73
2021/11/13 08:01:32;;;;;;;;;1.00;1.00;;;;;13.18;79.89;101245.88;4992784;28;45592;-73
2021/11/13 08:03:57;;;;;;;;;3.00;1.00;;;;;13.22;78.95;101252.13;4990816;28;45513;-73
2021/11/13 08:06:22;;;;;;;;;1.00;1.00;;;;;13.24;78.75;101251.25;4996252;28;46323;-73
2021/11/13 08:08:48;;;;;;;;;3.00;1.33;;;;;13.28;78.71;101260.13;4996076;28;49034;-72
2021/11/13 08:11:14;;;;;;;;;2.00;1.00;;;;;13.33;78.71;101258.38;4995346;28;45467;-74
2021/11/13 08:13:42;;;;;;;;;2.67;1.00;;;;;13.36;78.55;101256.63;4996580;28;45475;-73
2021/11/13 08:16:07;;;;;;;;;3.00;1.00;;;;;13.39;78.21;101253.09;4991037;28;45898;-72
2021/11/13 08:18:33;;;;;;;;;3.00;2.00;;;;;13.38;77.98;101245.16;4993911;28;45439;-73
2021/11/13 08:20:59;;;;;;;;;1.67;1.00;;;;;13.46;78.03;101249.59;4994328;28;45528;-73
2021/11/13 08:23:59;;;;;;;;;1.00;1.00;;;;;13.48;77.70;101255.81;4995686;28;45589;-73
2021/11/13 08:26:25;;;;;;;;;1.00;1.00;;;;;13.52;77.82;101246.09;4989708;28;48176;-72
2021/11/13 08:28:50;;;;;;;;;4.00;1.00;;;;;13.53;77.70;101254.09;4993871;28;45768;-73
2021/11/13 08:31:16;;;;;;;;;1.00;1.00;;;;;13.56;77.79;101264.69;4992820;28;45428;-73
2021/11/13 08:33:41;;;;;;;;;2.00;2.00;;;;;13.62;77.39;101262.06;4994142;28;45434;-73
2021/11/13 08:36:06;;;;;;;;;3.00;2.00;;;;;13.68;77.58;101262.97;4991387;28;60291;-73
2021/11/13 08:38:32;;;;;;;;;3.00;1.00;;;;;13.72;77.31;101260.38;4990885;28;45319;-72
2021/11/13 08:40:57;;;;;;;;;2.00;1.00;;;;;13.74;77.04;101268.31;4992325;28;46074;-72
2021/11/13 08:43:23;;;;;;;;;2.67;2.33;;;;;13.76;76.84;101267.47;4985255;28;45504;-73
2021/11/13 08:45:49;;;;;;;;;6.00;2.00;;;;;13.73;77.20;101267.44;4990744;28;63846;-73
2021/11/13 08:48:14;;;;;;;;;1.00;1.00;;;;;13.72;77.57;101267.44;4995514;28;45350;-73
2021/11/13 08:50:40;;;;;;;;;4.00;2.33;;;;;13.73;77.15;101271.84;4994130;28;45463;-73
2021/11/13 08:53:06;;;;;;;;;2.00;1.00;;;;;13.68;77.88;101274.47;4994544;28;45430;-73
2021/11/13 08:55:33;;;;;;;;;2.00;2.00;;;;;13.63;78.14;101278.88;4992231;28;46596;-73
2021/11/13 08:57:58;;;;;;;;;1.00;1.00;;;;;13.53;77.81;101262.03;4992280;28;45488;-73
2021/11/13 09:00:30;;;;;;;;;3.00;1.00;;;;;13.58;78.38;101260.31;4994634;28;45248;-72
2021/11/13 09:02:57;;;;;;;;;2.00;1.00;;;;;13.63;77.83;101271.84;4995544;28;45635;-73
2021/11/13 09:05:22;;;;;;;;;2.67;1.00;;;;;13.60;77.89;101268.25;4995154;28;46533;-73
2021/11/13 09:07:48;;;;;;;;;1.00;1.00;;;;;13.55;77.78;101270.88;4996194;28;45750;-73
2021/11/13 09:10:13;;;;;;;;;0.00;0.00;;;;;13.54;77.71;101261.16;4996265;28;45603;-73
2021/11/13 09:12:42;;;;;;;;;1.00;1.00;;;;;13.61;77.56;101268.25;4995318;28;56221;-73
2021/11/13 09:15:17;;;;;;;;;3.00;1.33;;;;;13.59;77.32;101256.78;4973848;28;48462;-74
2021/11/13 09:17:42;;;;;;;;;1.00;1.00;;;;;13.70;77.11;101272.75;4992749;28;45790;-73
2021/11/13 09:20:08;;;;;;;;;3.00;1.00;;;;;13.72;77.61;101270.09;4995295;28;45762;-74
2021/11/13 09:22:34;;;;;;;;;0.67;0.67;;;;;13.71;77.53;101277.16;4994732;28;45397;-73
2021/11/13 09:25:08;;;;;;;;;4.67;2.00;;;;;13.71;77.75;101277.16;4992946;28;46495;-73
2021/11/13 09:27:33;;;;;;;;;5.67;4.67;;;;;13.70;77.26;101266.56;4995362;28;45423;-73
2021/11/13 09:29:58;;;;;;;;;6.33;4.33;;;;;13.76;77.68;101270.13;4993823;28;55238;-75
2021/11/13 09:32:24;;;;;;;;;2.67;2.67;;;;;13.77;77.25;101273.66;4995137;28;55497;-73
2021/11/13 09:34:49;;;;;;;;;2.33;2.00;;;;;13.80;77.31;101271.03;4995198;28;62498;-73
2021/11/13 09:37:14;;;;;;;;;1.00;1.00;;;;;13.84;77.73;101270.13;4993908;28;45509;-74
2021/11/13 09:39:40;;;;;;;;;5.33;3.00;;;;;13.89;77.23;101273.72;4994966;28;54122;-73
2021/11/13 09:42:05;;;;;;;;;4.67;4.00;;;;;13.94;77.42;101273.72;4994864;28;54338;-73
2021/11/13 09:44:31;;;;;;;;;2.00;2.00;;;;;13.93;77.25;101272.84;4996167;28;45599;-73
2021/11/13 09:46:59;;;;;;;;;3.33;3.33;;;;;14.03;77.58;101285.28;4994991;28;58350;-73
2021/11/13 09:49:27;;;;;;;;;5.67;4.00;;;;;14.08;76.56;101286.19;4994888;28;45505;-73
2021/11/13 09:51:52;;;;;;;;;6.00;4.00;;;;;14.10;76.89;101276.44;4995715;28;45466;-73
2021/11/13 09:54:18;;;;;;;;;5.00;5.00;;;;;14.15;77.21;101285.31;4993788;28;60250;-74
2021/11/13 09:56:43;;;;;;;;;3.00;3.00;;;;;14.17;76.50;101277.38;4996147;28;51767;-73
2021/11/13 09:59:11;;;;;;;;;5.00;4.00;;;;;14.27;76.71;101294.22;4998689;28;47652;-73
2021/11/13 10:01:37;;;;;;;;;3.00;3.00;;;;;14.28;76.43;101293.34;4998736;28;45314;-73
2021/11/13 10:04:02;;;;;;;;;5.00;4.00;;;;;14.28;76.33;101298.66;4998014;28;45598;-74
2021/11/13 10:06:28;;;;;;;;;5.00;4.00;;;;;14.26;76.22;101300.41;4999031;28;45607;-73
2021/11/13 10:08:53;;;;;;;;;7.67;5.00;;;;;14.24;76.06;101289.78;4998588;28;45267;-73
2021/11/13 10:11:21;;;;;;;;;5.00;5.00;;;;;14.24;76.04;101292.44;4999229;28;45299;-73
2021/11/13 10:13:50;;;;;;;;;8.67;6.33;;;;;14.26;76.29;101300.41;4998471;28;46602;-73
2021/11/13 10:16:33;;;;;;;;;9.00;8.00;;;;;14.23;76.39;101295.09;4998989;28;45259;-73
2021/11/13 10:19:11;;;;;;;;;9.33;7.67;;;;;14.25;76.20;101291.56;4999006;28;45279;-73
2021/11/13 10:21:37;;;;;;;;;8.67;7.67;;;;;14.31;76.02;101296.00;4999451;28;45304;-73
2021/11/13 10:24:09;;;;;;;;;8.00;5.33;;;;;14.33;75.85;101294.25;4998958;28;46490;-74
2021/11/13 10:26:37;;;;;;;;;8.67;6.00;;;;;14.35;75.83;101290.72;4999019;28;45313;-73
2021/11/13 10:29:09;;;;;;;;;6.00;6.00;;;;;14.42;75.66;101286.28;4998969;28;45470;-74
2021/11/13 10:31:42;;;;;;;;;6.00;5.00;;;;;14.41;76.10;101288.06;4998996;28;45323;-73
2021/11/13 10:34:16;;;;;;;;;7.00;7.00;;;;;14.47;75.80;101287.22;4998753;28;45425;-73
2021/11/13 10:36:46;;;;;;;;;11.67;6.33;;;;;14.51;75.65;101281.03;4998795;28;45435;-73
2021/11/13 10:39:13;;;;;;;;;11.00;8.00;;;;;14.54;75.41;101282.78;4998756;28;45323;-73
2021/11/13 10:42:08;;;;;;;;;12.33;8.00;;;;;14.60;75.55;101294.34;4998932;28;45567;-73
2021/11/13 10:44:51;;;;;;;;;12.33;8.33;;;;;14.62;75.57;101292.56;4997814;28;46427;-73
2021/11/13 10:47:17;;;;;;;;;13.33;11.00;;;;;14.65;74.83;101292.59;4998793;28;45307;-74
2021/11/13 10:49:43;;;;;;;;;10.33;7.00;;;;;14.71;75.52;101293.47;4999012;28;45460;-73
2021/11/13 10:52:08;;;;;;;;;12.33;7.00;;;;;14.74;75.24;101288.16;4998866;28;45514;-74
2021/11/13 10:54:34;;;;;;;;;8.00;7.00;;;;;14.74;75.01;101289.03;4998669;28;45607;-73
2021/11/13 10:57:04;;;;;;;;;8.00;8.00;;;;;14.76;74.96;101284.63;4998602;28;45287;-73
2021/11/13 10:59:38;;;;;;;;;6.67;6.67;;;;;14.80;75.13;101290.81;4998583;28;45266;-73
2021/11/13 11:02:16;;;;;;;;;12.00;6.67;;;;;14.87;74.93;101276.66;4998838;28;45262;-73
2021/11/13 11:04:44;;;;;;;;;7.67;7.67;;;;;14.89;74.88;101278.41;4998591;28;45375;-73
2021/11/13 11:07:14;;;;;;;;;7.33;6.00;;;;;14.98;74.49;101279.31;4996665;28;45368;-73
2021/11/13 11:09:42;;;;;;;;;8.67;8.67;;;;;14.98;74.22;101274.88;4998843;28;45270;-73
2021/11/13 11:12:18;;;;;;;;;9.67;7.67;;;;;15.00;74.20;101280.19;4997562;28;45514;-73
2021/11/13 11:14:46;;;;;;;;;6.33;5.00;;;;;15.01;73.92;101274.88;4998042;28;46185;-73
2021/11/13 11:17:30;;;;;;;;;8.00;7.00;;;;;15.00;74.29;101278.41;4998214;28;45300;-73
2021/11/13 11:20:10;;;;;;;;;7.33;6.33;;;;;15.03;73.69;101269.56;4998436;28;45274;-73